sensor_id;sensor_type;location;lat;lon;timestamp;P1;durP1;ratioP1;P2;durP2;ratioP2
11699;SDS011;5906;51.660;6.674;2022-10-16T00:06:05;5.33;;;4.07;;
11699;SDS011;5906;51.660;6.674;2022-10-16T00:08:33;5.10;;;4.00;;
11699;SDS011;5906;51.660;6.674;2022-10-16T00:11:01;5.13;;;3.87;;
11699;SDS011;5906;51.660;6.674;2022-10-16T00:13:33;8.13;;;3.77;;
11699;SDS011;5906;51.660;6.674;2022-10-16T00:16:02;10.83;;;3.97;;
11699;SDS011;5906;51.660;6.674;2022-10-16T00:18:30;6.67;;;4.03;;
11699;SDS011;5906;51.660;6.674;2022-10-16T00:21:07;4.50;;;3.43;;
11699;SDS011;5906;51.660;6.674;2022-10-16T00:23:36;9.10;;;4.17;;
11699;SDS011;5906;51.660;6.674;2022-10-16T00:26:05;9.03;;;3.70;;
11699;SDS011;5906;51.660;6.674;2022-10-16T00:28:34;8.33;;;4.20;;
11699;SDS011;5906;51.660;6.674;2022-10-16T00:31:06;5.87;;;3.97;;
11699;SDS011;5906;51.660;6.674;2022-10-16T00:33:35;4.77;;;3.37;;
11699;SDS011;5906;51.660;6.674;2022-10-16T00:36:04;6.20;;;4.73;;
11699;SDS011;5906;51.660;6.674;2022-10-16T00:38:31;5.17;;;3.50;;
11699;SDS011;5906;51.660;6.674;2022-10-16T00:40:59;5.60;;;3.53;;
11699;SDS011;5906;51.660;6.674;2022-10-16T00:46:15;5.20;;;3.60;;
11699;SDS011;5906;51.660;6.674;2022-10-16T00:48:42;4.90;;;3.60;;
11699;SDS011;5906;51.660;6.674;2022-10-16T00:51:17;8.00;;;3.70;;
11699;SDS011;5906;51.660;6.674;2022-10-16T00:53:48;3.70;;;3.30;;
11699;SDS011;5906;51.660;6.674;2022-10-16T00:56:16;6.97;;;3.80;;
11699;SDS011;5906;51.660;6.674;2022-10-16T00:58:44;5.10;;;3.93;;
11699;SDS011;5906;51.660;6.674;2022-10-16T01:01:11;4.67;;;3.70;;
11699;SDS011;5906;51.660;6.674;2022-10-16T01:03:38;3.90;;;3.13;;
11699;SDS011;5906;51.660;6.674;2022-10-16T01:06:08;8.37;;;3.50;;
11699;SDS011;5906;51.660;6.674;2022-10-16T01:08:39;8.27;;;4.30;;
11699;SDS011;5906;51.660;6.674;2022-10-16T01:11:50;7.33;;;4.30;;
11699;SDS011;5906;51.660;6.674;2022-10-16T01:14:37;5.80;;;3.63;;
11699;SDS011;5906;51.660;6.674;2022-10-16T01:17:21;4.00;;;3.30;;
11699;SDS011;5906;51.660;6.674;2022-10-16T01:20:10;3.70;;;3.30;;
11699;SDS011;5906;51.660;6.674;2022-10-16T01:22:59;4.10;;;3.30;;
11699;SDS011;5906;51.660;6.674;2022-10-16T01:25:36;9.53;;;4.20;;
11699;SDS011;5906;51.660;6.674;2022-10-16T01:28:19;4.93;;;3.50;;
11699;SDS011;5906;51.660;6.674;2022-10-16T01:30:51;4.40;;;3.60;;
11699;SDS011;5906;51.660;6.674;2022-10-16T01:33:28;3.77;;;3.20;;
11699;SDS011;5906;51.660;6.674;2022-10-16T01:36:08;4.70;;;3.20;;
11699;SDS011;5906;51.660;6.674;2022-10-16T01:38:39;6.80;;;3.20;;
11699;SDS011;5906;51.660;6.674;2022-10-16T01:44:04;5.23;;;3.53;;
11699;SDS011;5906;51.660;6.674;2022-10-16T01:46:36;4.47;;;3.27;;
11699;SDS011;5906;51.660;6.674;2022-10-16T01:49:07;6.07;;;3.60;;
11699;SDS011;5906;51.660;6.674;2022-10-16T01:51:36;5.93;;;3.50;;
11699;SDS011;5906;51.660;6.674;2022-10-16T01:54:04;4.73;;;3.30;;
11699;SDS011;5906;51.660;6.674;2022-10-16T01:56:34;5.70;;;3.90;;
11699;SDS011;5906;51.660;6.674;2022-10-16T01:59:04;3.97;;;3.30;;
11699;SDS011;5906;51.660;6.674;2022-10-16T02:01:40;3.77;;;3.13;;
11699;SDS011;5906;51.660;6.674;2022-10-16T02:04:13;6.57;;;3.83;;
11699;SDS011;5906;51.660;6.674;2022-10-16T02:06:44;5.47;;;3.57;;
11699;SDS011;5906;51.660;6.674;2022-10-16T02:09:11;4.50;;;3.00;;
11699;SDS011;5906;51.660;6.674;2022-10-16T02:11:38;4.97;;;3.13;;
11699;SDS011;5906;51.660;6.674;2022-10-16T02:16:37;7.77;;;3.50;;
11699;SDS011;5906;51.660;6.674;2022-10-16T02:19:06;3.70;;;2.80;;
11699;SDS011;5906;51.660;6.674;2022-10-16T02:27:05;3.10;;;2.80;;
11699;SDS011;5906;51.660;6.674;2022-10-16T02:29:39;3.20;;;2.87;;
11699;SDS011;5906;51.660;6.674;2022-10-16T02:32:11;9.07;;;3.23;;
11699;SDS011;5906;51.660;6.674;2022-10-16T02:34:41;3.73;;;2.90;;
11699;SDS011;5906;51.660;6.674;2022-10-16T02:37:10;4.00;;;3.30;;
11699;SDS011;5906;51.660;6.674;2022-10-16T02:39:37;3.60;;;2.53;;
11699;SDS011;5906;51.660;6.674;2022-10-16T02:42:09;3.30;;;2.90;;
11699;SDS011;5906;51.660;6.674;2022-10-16T02:44:40;5.43;;;3.00;;
11699;SDS011;5906;51.660;6.674;2022-10-16T02:47:07;3.40;;;2.60;;
11699;SDS011;5906;51.660;6.674;2022-10-16T02:49:34;3.03;;;2.67;;
11699;SDS011;5906;51.660;6.674;2022-10-16T02:52:01;5.87;;;2.83;;
11699;SDS011;5906;51.660;6.674;2022-10-16T02:54:28;3.27;;;2.80;;
11699;SDS011;5906;51.660;6.674;2022-10-16T02:56:55;5.17;;;2.80;;
11699;SDS011;5906;51.660;6.674;2022-10-16T02:59:21;4.13;;;2.70;;
11699;SDS011;5906;51.660;6.674;2022-10-16T03:01:49;4.97;;;2.53;;
11699;SDS011;5906;51.660;6.674;2022-10-16T03:04:15;4.70;;;2.73;;
11699;SDS011;5906;51.660;6.674;2022-10-16T03:06:42;3.10;;;2.53;;
11699;SDS011;5906;51.660;6.674;2022-10-16T03:09:09;2.87;;;2.60;;
11699;SDS011;5906;51.660;6.674;2022-10-16T03:11:36;4.57;;;2.70;;
11699;SDS011;5906;51.660;6.674;2022-10-16T03:14:02;3.03;;;2.50;;
11699;SDS011;5906;51.660;6.674;2022-10-16T03:16:29;2.83;;;2.50;;
11699;SDS011;5906;51.660;6.674;2022-10-16T03:18:56;4.47;;;2.80;;
11699;SDS011;5906;51.660;6.674;2022-10-16T03:21:23;2.50;;;2.10;;
11699;SDS011;5906;51.660;6.674;2022-10-16T03:23:50;11.90;;;2.90;;
11699;SDS011;5906;51.660;6.674;2022-10-16T03:26:17;9.20;;;3.53;;
11699;SDS011;5906;51.660;6.674;2022-10-16T03:28:43;10.10;;;2.80;;
11699;SDS011;5906;51.660;6.674;2022-10-16T03:31:10;3.70;;;2.43;;
11699;SDS011;5906;51.660;6.674;2022-10-16T03:33:37;2.70;;;2.47;;
11699;SDS011;5906;51.660;6.674;2022-10-16T03:36:04;3.57;;;2.40;;
11699;SDS011;5906;51.660;6.674;2022-10-16T03:38:31;11.00;;;2.50;;
11699;SDS011;5906;51.660;6.674;2022-10-16T03:40:57;4.73;;;2.40;;
11699;SDS011;5906;51.660;6.674;2022-10-16T03:43:24;4.63;;;2.60;;
11699;SDS011;5906;51.660;6.674;2022-10-16T03:45:51;3.60;;;2.60;;
11699;SDS011;5906;51.660;6.674;2022-10-16T03:48:18;3.37;;;2.90;;
11699;SDS011;5906;51.660;6.674;2022-10-16T03:50:45;2.80;;;2.23;;
11699;SDS011;5906;51.660;6.674;2022-10-16T03:53:14;2.90;;;2.37;;
11699;SDS011;5906;51.660;6.674;2022-10-16T03:55:42;3.00;;;2.43;;
11699;SDS011;5906;51.660;6.674;2022-10-16T03:58:09;4.60;;;2.43;;
11699;SDS011;5906;51.660;6.674;2022-10-16T04:00:39;3.30;;;2.53;;
11699;SDS011;5906;51.660;6.674;2022-10-16T04:03:07;2.63;;;2.20;;
11699;SDS011;5906;51.660;6.674;2022-10-16T04:05:34;2.57;;;2.37;;
11699;SDS011;5906;51.660;6.674;2022-10-16T04:08:01;5.20;;;2.50;;
11699;SDS011;5906;51.660;6.674;2022-10-16T04:10:28;2.47;;;2.27;;
11699;SDS011;5906;51.660;6.674;2022-10-16T04:12:55;2.33;;;2.13;;
11699;SDS011;5906;51.660;6.674;2022-10-16T04:15:22;3.57;;;2.70;;
11699;SDS011;5906;51.660;6.674;2022-10-16T04:17:49;3.60;;;2.70;;
11699;SDS011;5906;51.660;6.674;2022-10-16T04:20:17;2.13;;;1.93;;
11699;SDS011;5906;51.660;6.674;2022-10-16T04:22:44;2.63;;;2.10;;
11699;SDS011;5906;51.660;6.674;2022-10-16T04:25:11;3.73;;;2.17;;
11699;SDS011;5906;51.660;6.674;2022-10-16T04:27:38;2.23;;;2.03;;
11699;SDS011;5906;51.660;6.674;2022-10-16T04:30:10;3.47;;;2.37;;
11699;SDS011;5906;51.660;6.674;2022-10-16T04:32:37;2.40;;;2.20;;
11699;SDS011;5906;51.660;6.674;2022-10-16T04:35:04;2.20;;;2.00;;
11699;SDS011;5906;51.660;6.674;2022-10-16T04:37:31;2.07;;;1.87;;
11699;SDS011;5906;51.660;6.674;2022-10-16T04:39:58;4.57;;;2.03;;
11699;SDS011;5906;51.660;6.674;2022-10-16T04:42:25;2.33;;;2.13;;
11699;SDS011;5906;51.660;6.674;2022-10-16T04:44:51;2.30;;;2.10;;
11699;SDS011;5906;51.660;6.674;2022-10-16T04:47:18;2.77;;;2.33;;
11699;SDS011;5906;51.660;6.674;2022-10-16T04:49:45;2.70;;;2.30;;
11699;SDS011;5906;51.660;6.674;2022-10-16T04:52:12;6.63;;;2.83;;
11699;SDS011;5906;51.660;6.674;2022-10-16T04:54:38;7.10;;;2.33;;
11699;SDS011;5906;51.660;6.674;2022-10-16T04:57:06;3.13;;;2.13;;
11699;SDS011;5906;51.660;6.674;2022-10-16T04:59:32;4.13;;;2.40;;
11699;SDS011;5906;51.660;6.674;2022-10-16T05:01:59;2.30;;;2.10;;
11699;SDS011;5906;51.660;6.674;2022-10-16T05:04:26;2.63;;;2.17;;
11699;SDS011;5906;51.660;6.674;2022-10-16T05:06:53;9.10;;;2.00;;
11699;SDS011;5906;51.660;6.674;2022-10-16T05:09:20;2.17;;;1.97;;
11699;SDS011;5906;51.660;6.674;2022-10-16T05:11:47;2.57;;;2.20;;
11699;SDS011;5906;51.660;6.674;2022-10-16T05:14:14;2.77;;;1.90;;
11699;SDS011;5906;51.660;6.674;2022-10-16T05:16:41;2.20;;;2.00;;
11699;SDS011;5906;51.660;6.674;2022-10-16T05:19:07;3.53;;;2.10;;
11699;SDS011;5906;51.660;6.674;2022-10-16T05:21:54;2.33;;;1.70;;
11699;SDS011;5906;51.660;6.674;2022-10-16T05:24:21;2.90;;;1.87;;
11699;SDS011;5906;51.660;6.674;2022-10-16T05:26:49;2.47;;;2.00;;
11699;SDS011;5906;51.660;6.674;2022-10-16T05:29:16;2.40;;;2.10;;
11699;SDS011;5906;51.660;6.674;2022-10-16T05:31:43;12.33;;;2.10;;
11699;SDS011;5906;51.660;6.674;2022-10-16T05:36:37;2.43;;;2.13;;
11699;SDS011;5906;51.660;6.674;2022-10-16T05:39:04;2.50;;;2.00;;
11699;SDS011;5906;51.660;6.674;2022-10-16T05:41:31;2.93;;;2.27;;
11699;SDS011;5906;51.660;6.674;2022-10-16T05:43:58;5.13;;;1.77;;
11699;SDS011;5906;51.660;6.674;2022-10-16T05:46:24;2.33;;;2.13;;
11699;SDS011;5906;51.660;6.674;2022-10-16T05:48:52;2.10;;;1.90;;
11699;SDS011;5906;51.660;6.674;2022-10-16T05:51:19;2.30;;;2.10;;
11699;SDS011;5906;51.660;6.674;2022-10-16T05:53:46;2.33;;;2.03;;
11699;SDS011;5906;51.660;6.674;2022-10-16T05:56:13;4.63;;;2.27;;
11699;SDS011;5906;51.660;6.674;2022-10-16T05:58:40;17.07;;;2.10;;
11699;SDS011;5906;51.660;6.674;2022-10-16T06:01:09;2.33;;;2.13;;
11699;SDS011;5906;51.660;6.674;2022-10-16T06:03:38;6.10;;;2.63;;
11699;SDS011;5906;51.660;6.674;2022-10-16T06:06:14;3.70;;;2.87;;
11699;SDS011;5906;51.660;6.674;2022-10-16T06:08:43;4.43;;;2.40;;
11699;SDS011;5906;51.660;6.674;2022-10-16T06:11:13;4.37;;;2.67;;
11699;SDS011;5906;51.660;6.674;2022-10-16T06:13:41;5.00;;;2.40;;
11699;SDS011;5906;51.660;6.674;2022-10-16T06:16:09;2.30;;;2.10;;
11699;SDS011;5906;51.660;6.674;2022-10-16T06:18:36;2.93;;;2.40;;
11699;SDS011;5906;51.660;6.674;2022-10-16T06:21:07;2.33;;;2.13;;
11699;SDS011;5906;51.660;6.674;2022-10-16T06:23:36;2.37;;;2.17;;
11699;SDS011;5906;51.660;6.674;2022-10-16T06:26:09;2.20;;;2.00;;
11699;SDS011;5906;51.660;6.674;2022-10-16T06:28:38;3.23;;;2.50;;
11699;SDS011;5906;51.660;6.674;2022-10-16T06:31:06;3.50;;;3.03;;
11699;SDS011;5906;51.660;6.674;2022-10-16T06:33:34;4.83;;;2.43;;
11699;SDS011;5906;51.660;6.674;2022-10-16T06:38:29;4.47;;;2.93;;
11699;SDS011;5906;51.660;6.674;2022-10-16T06:40:57;3.00;;;2.57;;
11699;SDS011;5906;51.660;6.674;2022-10-16T06:43:25;5.30;;;3.10;;
11699;SDS011;5906;51.660;6.674;2022-10-16T06:45:55;2.70;;;2.50;;
11699;SDS011;5906;51.660;6.674;2022-10-16T06:48:22;5.23;;;2.60;;
11699;SDS011;5906;51.660;6.674;2022-10-16T06:53:36;4.40;;;2.90;;
11699;SDS011;5906;51.660;6.674;2022-10-16T06:56:26;2.73;;;2.40;;
11699;SDS011;5906;51.660;6.674;2022-10-16T06:58:54;4.73;;;2.70;;
11699;SDS011;5906;51.660;6.674;2022-10-16T07:01:21;3.13;;;2.83;;
11699;SDS011;5906;51.660;6.674;2022-10-16T07:03:49;2.60;;;2.40;;
11699;SDS011;5906;51.660;6.674;2022-10-16T07:06:17;3.47;;;2.90;;
11699;SDS011;5906;51.660;6.674;2022-10-16T07:08:46;4.93;;;3.30;;
11699;SDS011;5906;51.660;6.674;2022-10-16T07:11:15;4.13;;;3.17;;
11699;SDS011;5906;51.660;6.674;2022-10-16T07:13:44;3.97;;;2.93;;
11699;SDS011;5906;51.660;6.674;2022-10-16T07:16:20;5.27;;;3.50;;
11699;SDS011;5906;51.660;6.674;2022-10-16T07:18:55;6.60;;;3.50;;
11699;SDS011;5906;51.660;6.674;2022-10-16T07:21:27;4.47;;;3.30;;
11699;SDS011;5906;51.660;6.674;2022-10-16T07:23:58;4.13;;;3.13;;
11699;SDS011;5906;51.660;6.674;2022-10-16T07:26:27;3.27;;;2.97;;
11699;SDS011;5906;51.660;6.674;2022-10-16T07:28:56;10.20;;;3.47;;
11699;SDS011;5906;51.660;6.674;2022-10-16T07:31:23;3.70;;;3.00;;
11699;SDS011;5906;51.660;6.674;2022-10-16T07:33:51;3.37;;;3.00;;
11699;SDS011;5906;51.660;6.674;2022-10-16T07:36:18;8.23;;;3.13;;
11699;SDS011;5906;51.660;6.674;2022-10-16T07:38:46;3.73;;;3.17;;
11699;SDS011;5906;51.660;6.674;2022-10-16T07:41:14;6.30;;;3.60;;
11699;SDS011;5906;51.660;6.674;2022-10-16T07:43:46;4.13;;;3.10;;
11699;SDS011;5906;51.660;6.674;2022-10-16T07:46:17;3.20;;;2.90;;
11699;SDS011;5906;51.660;6.674;2022-10-16T07:48:45;6.63;;;3.13;;
11699;SDS011;5906;51.660;6.674;2022-10-16T07:51:15;4.03;;;3.17;;
11699;SDS011;5906;51.660;6.674;2022-10-16T07:53:43;5.50;;;4.00;;
11699;SDS011;5906;51.660;6.674;2022-10-16T07:56:10;5.50;;;3.10;;
11699;SDS011;5906;51.660;6.674;2022-10-16T07:58:37;3.67;;;3.17;;
11699;SDS011;5906;51.660;6.674;2022-10-16T08:01:05;6.77;;;3.43;;
11699;SDS011;5906;51.660;6.674;2022-10-16T08:03:34;5.60;;;3.10;;
11699;SDS011;5906;51.660;6.674;2022-10-16T08:06:02;3.60;;;2.57;;
11699;SDS011;5906;51.660;6.674;2022-10-16T08:08:30;5.73;;;2.90;;
11699;SDS011;5906;51.660;6.674;2022-10-16T08:10:57;5.27;;;3.43;;
11699;SDS011;5906;51.660;6.674;2022-10-16T08:13:23;6.67;;;2.90;;
11699;SDS011;5906;51.660;6.674;2022-10-16T08:15:50;4.17;;;2.90;;
11699;SDS011;5906;51.660;6.674;2022-10-16T08:18:17;7.93;;;3.20;;
11699;SDS011;5906;51.660;6.674;2022-10-16T08:20:44;6.80;;;3.30;;
11699;SDS011;5906;51.660;6.674;2022-10-16T08:23:11;5.20;;;3.30;;
11699;SDS011;5906;51.660;6.674;2022-10-16T08:25:40;4.77;;;2.73;;
11699;SDS011;5906;51.660;6.674;2022-10-16T08:28:08;4.10;;;2.40;;
11699;SDS011;5906;51.660;6.674;2022-10-16T08:30:36;5.20;;;3.00;;
11699;SDS011;5906;51.660;6.674;2022-10-16T08:33:04;5.87;;;2.40;;
11699;SDS011;5906;51.660;6.674;2022-10-16T08:35:32;3.23;;;2.53;;
11699;SDS011;5906;51.660;6.674;2022-10-16T08:37:59;5.33;;;2.80;;
11699;SDS011;5906;51.660;6.674;2022-10-16T08:40:29;6.80;;;3.17;;
11699;SDS011;5906;51.660;6.674;2022-10-16T08:43:21;2.30;;;2.10;;
11699;SDS011;5906;51.660;6.674;2022-10-16T08:46:14;9.00;;;2.60;;
11699;SDS011;5906;51.660;6.674;2022-10-16T08:51:24;2.90;;;2.57;;
11699;SDS011;5906;51.660;6.674;2022-10-16T08:54:01;2.33;;;2.00;;
11699;SDS011;5906;51.660;6.674;2022-10-16T08:56:30;4.63;;;2.50;;
11699;SDS011;5906;51.660;6.674;2022-10-16T08:58:57;4.93;;;2.03;;
11699;SDS011;5906;51.660;6.674;2022-10-16T09:01:38;12.93;;;2.27;;
11699;SDS011;5906;51.660;6.674;2022-10-16T09:04:20;4.50;;;2.13;;
11699;SDS011;5906;51.660;6.674;2022-10-16T09:12:28;5.00;;;2.10;;
11699;SDS011;5906;51.660;6.674;2022-10-16T09:15:13;3.63;;;2.40;;
11699;SDS011;5906;51.660;6.674;2022-10-16T09:20:42;3.50;;;2.03;;
11699;SDS011;5906;51.660;6.674;2022-10-16T09:23:30;3.80;;;1.97;;
11699;SDS011;5906;51.660;6.674;2022-10-16T09:26:00;2.93;;;2.27;;
11699;SDS011;5906;51.660;6.674;2022-10-16T09:28:29;4.90;;;2.17;;
11699;SDS011;5906;51.660;6.674;2022-10-16T09:30:55;3.90;;;2.10;;
11699;SDS011;5906;51.660;6.674;2022-10-16T09:33:28;5.47;;;2.30;;
11699;SDS011;5906;51.660;6.674;2022-10-16T09:36:01;3.70;;;2.43;;
11699;SDS011;5906;51.660;6.674;2022-10-16T09:38:31;2.57;;;2.23;;
11699;SDS011;5906;51.660;6.674;2022-10-16T09:41:00;4.33;;;2.10;;
11699;SDS011;5906;51.660;6.674;2022-10-16T09:43:55;3.50;;;1.70;;
11699;SDS011;5906;51.660;6.674;2022-10-16T09:46:27;9.93;;;2.37;;
11699;SDS011;5906;51.660;6.674;2022-10-16T09:48:57;2.70;;;1.80;;
11699;SDS011;5906;51.660;6.674;2022-10-16T09:51:26;5.57;;;1.83;;
11699;SDS011;5906;51.660;6.674;2022-10-16T09:56:28;3.70;;;2.03;;
11699;SDS011;5906;51.660;6.674;2022-10-16T09:58:59;6.33;;;2.00;;
11699;SDS011;5906;51.660;6.674;2022-10-16T10:01:36;3.73;;;1.97;;
11699;SDS011;5906;51.660;6.674;2022-10-16T10:04:04;4.60;;;1.80;;
11699;SDS011;5906;51.660;6.674;2022-10-16T10:06:33;1.90;;;1.73;;
11699;SDS011;5906;51.660;6.674;2022-10-16T10:11:58;3.43;;;1.80;;
11699;SDS011;5906;51.660;6.674;2022-10-16T10:22:31;4.03;;;1.77;;
11699;SDS011;5906;51.660;6.674;2022-10-16T10:25:00;2.23;;;1.70;;
11699;SDS011;5906;51.660;6.674;2022-10-16T10:30:22;3.67;;;1.93;;
11699;SDS011;5906;51.660;6.674;2022-10-16T10:44:03;5.00;;;2.10;;
11699;SDS011;5906;51.660;6.674;2022-10-16T10:51:52;3.73;;;2.40;;
11699;SDS011;5906;51.660;6.674;2022-10-16T11:08:11;5.50;;;1.80;;
11699;SDS011;5906;51.660;6.674;2022-10-16T11:13:26;6.93;;;1.67;;
11699;SDS011;5906;51.660;6.674;2022-10-16T11:16:19;4.83;;;1.77;;
11699;SDS011;5906;51.660;6.674;2022-10-16T11:18:56;2.60;;;1.70;;
11699;SDS011;5906;51.660;6.674;2022-10-16T11:21:29;3.10;;;1.80;;
11699;SDS011;5906;51.660;6.674;2022-10-16T11:24:04;2.63;;;1.30;;
11699;SDS011;5906;51.660;6.674;2022-10-16T11:26:39;2.83;;;1.60;;
11699;SDS011;5906;51.660;6.674;2022-10-16T11:29:13;3.73;;;1.60;;
11699;SDS011;5906;51.660;6.674;2022-10-16T11:31:48;3.17;;;2.07;;
11699;SDS011;5906;51.660;6.674;2022-10-16T11:36:52;4.27;;;2.17;;
11699;SDS011;5906;51.660;6.674;2022-10-16T11:42:03;3.87;;;1.80;;
11699;SDS011;5906;51.660;6.674;2022-10-16T11:44:50;2.47;;;1.70;;
11699;SDS011;5906;51.660;6.674;2022-10-16T11:47:31;5.20;;;2.20;;
11699;SDS011;5906;51.660;6.674;2022-10-16T11:50:25;7.80;;;1.77;;
11699;SDS011;5906;51.660;6.674;2022-10-16T11:55:50;4.53;;;1.70;;
11699;SDS011;5906;51.660;6.674;2022-10-16T11:58:25;5.60;;;1.93;;
11699;SDS011;5906;51.660;6.674;2022-10-16T12:01:33;5.00;;;1.90;;
11699;SDS011;5906;51.660;6.674;2022-10-16T12:07:12;3.50;;;2.17;;
11699;SDS011;5906;51.660;6.674;2022-10-16T12:09:43;1.90;;;1.70;;
11699;SDS011;5906;51.660;6.674;2022-10-16T12:17:52;4.00;;;1.57;;
11699;SDS011;5906;51.660;6.674;2022-10-16T12:20:24;5.70;;;1.70;;
11699;SDS011;5906;51.660;6.674;2022-10-16T12:22:57;3.77;;;2.27;;
11699;SDS011;5906;51.660;6.674;2022-10-16T12:25:35;4.33;;;1.97;;
11699;SDS011;5906;51.660;6.674;2022-10-16T12:28:05;3.40;;;1.60;;
11699;SDS011;5906;51.660;6.674;2022-10-16T12:30:52;3.97;;;1.70;;
11699;SDS011;5906;51.660;6.674;2022-10-16T12:35:58;2.60;;;1.50;;
11699;SDS011;5906;51.660;6.674;2022-10-16T12:38:38;7.20;;;1.77;;
11699;SDS011;5906;51.660;6.674;2022-10-16T12:41:12;3.87;;;1.77;;
11699;SDS011;5906;51.660;6.674;2022-10-16T12:43:49;2.03;;;1.70;;
11699;SDS011;5906;51.660;6.674;2022-10-16T12:48:44;6.97;;;1.83;;
11699;SDS011;5906;51.660;6.674;2022-10-16T12:54:11;5.87;;;2.10;;
11699;SDS011;5906;51.660;6.674;2022-10-16T13:02:55;4.87;;;1.67;;
11699;SDS011;5906;51.660;6.674;2022-10-16T13:05:47;4.13;;;1.83;;
11699;SDS011;5906;51.660;6.674;2022-10-16T13:17:38;4.47;;;1.90;;
11699;SDS011;5906;51.660;6.674;2022-10-16T13:20:23;8.20;;;1.60;;
11699;SDS011;5906;51.660;6.674;2022-10-16T13:23:29;4.40;;;2.00;;
11699;SDS011;5906;51.660;6.674;2022-10-16T13:29:02;1.50;;;1.23;;
11699;SDS011;5906;51.660;6.674;2022-10-16T13:31:30;8.93;;;1.50;;
11699;SDS011;5906;51.660;6.674;2022-10-16T13:33:58;4.80;;;1.30;;
11699;SDS011;5906;51.660;6.674;2022-10-16T13:36:30;2.67;;;1.43;;
11699;SDS011;5906;51.660;6.674;2022-10-16T13:39:14;4.30;;;1.50;;
11699;SDS011;5906;51.660;6.674;2022-10-16T13:42:03;3.07;;;1.40;;
11699;SDS011;5906;51.660;6.674;2022-10-16T13:44:41;4.00;;;1.73;;
11699;SDS011;5906;51.660;6.674;2022-10-16T13:47:20;1.70;;;1.60;;
11699;SDS011;5906;51.660;6.674;2022-10-16T13:50:06;6.30;;;1.40;;
11699;SDS011;5906;51.660;6.674;2022-10-16T13:52:40;2.07;;;1.50;;
11699;SDS011;5906;51.660;6.674;2022-10-16T13:55:11;7.87;;;2.00;;
11699;SDS011;5906;51.660;6.674;2022-10-16T13:57:39;2.90;;;1.53;;
11699;SDS011;5906;51.660;6.674;2022-10-16T14:00:28;4.23;;;1.70;;
11699;SDS011;5906;51.660;6.674;2022-10-16T14:03:00;3.53;;;1.40;;
11699;SDS011;5906;51.660;6.674;2022-10-16T14:05:29;3.53;;;1.50;;
11699;SDS011;5906;51.660;6.674;2022-10-16T14:07:56;3.97;;;1.87;;
11699;SDS011;5906;51.660;6.674;2022-10-16T14:10:25;4.13;;;1.30;;
11699;SDS011;5906;51.660;6.674;2022-10-16T14:13:00;4.33;;;1.60;;
11699;SDS011;5906;51.660;6.674;2022-10-16T14:15:30;1.97;;;1.50;;
11699;SDS011;5906;51.660;6.674;2022-10-16T14:17:59;5.60;;;1.53;;
11699;SDS011;5906;51.660;6.674;2022-10-16T14:20:27;3.70;;;1.40;;
11699;SDS011;5906;51.660;6.674;2022-10-16T14:23:00;4.70;;;1.37;;
11699;SDS011;5906;51.660;6.674;2022-10-16T14:25:44;2.97;;;1.53;;
11699;SDS011;5906;51.660;6.674;2022-10-16T14:36:03;1.57;;;1.30;;
11699;SDS011;5906;51.660;6.674;2022-10-16T14:38:37;6.03;;;1.40;;
11699;SDS011;5906;51.660;6.674;2022-10-16T14:41:05;7.10;;;1.40;;
11699;SDS011;5906;51.660;6.674;2022-10-16T14:46:02;3.00;;;1.40;;
11699;SDS011;5906;51.660;6.674;2022-10-16T14:48:31;2.77;;;1.50;;
11699;SDS011;5906;51.660;6.674;2022-10-16T14:50:58;3.97;;;1.60;;
11699;SDS011;5906;51.660;6.674;2022-10-16T14:53:25;9.53;;;1.90;;
11699;SDS011;5906;51.660;6.674;2022-10-16T14:55:52;3.10;;;1.63;;
11699;SDS011;5906;51.660;6.674;2022-10-16T14:58:20;4.20;;;1.60;;
11699;SDS011;5906;51.660;6.674;2022-10-16T15:00:49;1.77;;;1.30;;
11699;SDS011;5906;51.660;6.674;2022-10-16T15:03:16;6.83;;;1.47;;
11699;SDS011;5906;51.660;6.674;2022-10-16T15:05:43;2.13;;;1.50;;
11699;SDS011;5906;51.660;6.674;2022-10-16T15:08:10;2.20;;;1.63;;
11699;SDS011;5906;51.660;6.674;2022-10-16T15:10:40;1.67;;;1.43;;
11699;SDS011;5906;51.660;6.674;2022-10-16T15:13:12;4.47;;;1.93;;
11699;SDS011;5906;51.660;6.674;2022-10-16T15:15:41;5.73;;;1.60;;
11699;SDS011;5906;51.660;6.674;2022-10-16T15:18:12;1.47;;;1.30;;
11699;SDS011;5906;51.660;6.674;2022-10-16T15:20:41;7.60;;;3.00;;
11699;SDS011;5906;51.660;6.674;2022-10-16T15:23:13;7.43;;;2.53;;
11699;SDS011;5906;51.660;6.674;2022-10-16T15:25:53;4.17;;;2.53;;
11699;SDS011;5906;51.660;6.674;2022-10-16T15:28:22;2.90;;;1.80;;
11699;SDS011;5906;51.660;6.674;2022-10-16T15:30:51;2.50;;;1.37;;
11699;SDS011;5906;51.660;6.674;2022-10-16T15:33:20;2.27;;;1.60;;
11699;SDS011;5906;51.660;6.674;2022-10-16T15:35:49;6.60;;;1.57;;
11699;SDS011;5906;51.660;6.674;2022-10-16T15:38:19;8.73;;;2.03;;
11699;SDS011;5906;51.660;6.674;2022-10-16T15:40:48;2.10;;;1.60;;
11699;SDS011;5906;51.660;6.674;2022-10-16T15:43:15;4.13;;;2.00;;
11699;SDS011;5906;51.660;6.674;2022-10-16T15:45:42;3.70;;;1.63;;
11699;SDS011;5906;51.660;6.674;2022-10-16T15:48:12;4.17;;;1.80;;
11699;SDS011;5906;51.660;6.674;2022-10-16T15:50:40;5.00;;;1.90;;
11699;SDS011;5906;51.660;6.674;2022-10-16T15:53:09;1.70;;;1.50;;
11699;SDS011;5906;51.660;6.674;2022-10-16T15:55:36;7.83;;;2.20;;
11699;SDS011;5906;51.660;6.674;2022-10-16T15:58:03;8.70;;;1.93;;
11699;SDS011;5906;51.660;6.674;2022-10-16T16:00:31;3.83;;;2.40;;
11699;SDS011;5906;51.660;6.674;2022-10-16T16:02:59;5.80;;;1.80;;
11699;SDS011;5906;51.660;6.674;2022-10-16T16:05:25;4.87;;;1.70;;
11699;SDS011;5906;51.660;6.674;2022-10-16T16:07:53;3.80;;;1.73;;
11699;SDS011;5906;51.660;6.674;2022-10-16T16:10:20;5.60;;;1.60;;
11699;SDS011;5906;51.660;6.674;2022-10-16T16:12:48;7.93;;;2.53;;
11699;SDS011;5906;51.660;6.674;2022-10-16T16:15:18;3.67;;;1.67;;
11699;SDS011;5906;51.660;6.674;2022-10-16T16:17:46;10.03;;;2.20;;
11699;SDS011;5906;51.660;6.674;2022-10-16T16:20:13;2.37;;;1.60;;
11699;SDS011;5906;51.660;6.674;2022-10-16T16:22:40;3.00;;;2.00;;
11699;SDS011;5906;51.660;6.674;2022-10-16T16:25:07;3.60;;;1.90;;
11699;SDS011;5906;51.660;6.674;2022-10-16T16:27:35;3.97;;;1.80;;
11699;SDS011;5906;51.660;6.674;2022-10-16T16:30:05;5.90;;;1.90;;
11699;SDS011;5906;51.660;6.674;2022-10-16T16:32:33;4.57;;;2.10;;
11699;SDS011;5906;51.660;6.674;2022-10-16T16:35:01;7.20;;;1.60;;
11699;SDS011;5906;51.660;6.674;2022-10-16T16:37:29;2.80;;;1.80;;
11699;SDS011;5906;51.660;6.674;2022-10-16T16:39:56;4.00;;;1.67;;
11699;SDS011;5906;51.660;6.674;2022-10-16T16:42:27;7.83;;;2.27;;
11699;SDS011;5906;51.660;6.674;2022-10-16T16:44:54;5.43;;;2.17;;
11699;SDS011;5906;51.660;6.674;2022-10-16T16:47:21;9.60;;;2.63;;
11699;SDS011;5906;51.660;6.674;2022-10-16T16:49:48;1.70;;;1.57;;
11699;SDS011;5906;51.660;6.674;2022-10-16T16:52:15;4.37;;;1.73;;
11699;SDS011;5906;51.660;6.674;2022-10-16T16:54:42;3.70;;;2.07;;
11699;SDS011;5906;51.660;6.674;2022-10-16T16:57:10;3.23;;;2.00;;
11699;SDS011;5906;51.660;6.674;2022-10-16T16:59:36;7.13;;;2.17;;
11699;SDS011;5906;51.660;6.674;2022-10-16T17:02:03;3.40;;;2.07;;
11699;SDS011;5906;51.660;6.674;2022-10-16T17:04:30;6.50;;;1.90;;
11699;SDS011;5906;51.660;6.674;2022-10-16T17:06:57;8.03;;;2.20;;
11699;SDS011;5906;51.660;6.674;2022-10-16T17:09:24;12.43;;;2.27;;
11699;SDS011;5906;51.660;6.674;2022-10-16T17:11:51;2.87;;;1.90;;
11699;SDS011;5906;51.660;6.674;2022-10-16T17:14:18;5.37;;;2.40;;
11699;SDS011;5906;51.660;6.674;2022-10-16T17:16:44;3.00;;;1.90;;
11699;SDS011;5906;51.660;6.674;2022-10-16T17:19:14;3.20;;;2.00;;
11699;SDS011;5906;51.660;6.674;2022-10-16T17:21:42;10.00;;;2.90;;
11699;SDS011;5906;51.660;6.674;2022-10-16T17:24:09;4.50;;;2.13;;
11699;SDS011;5906;51.660;6.674;2022-10-16T17:26:36;7.00;;;2.40;;
11699;SDS011;5906;51.660;6.674;2022-10-16T17:29:04;4.60;;;2.23;;
11699;SDS011;5906;51.660;6.674;2022-10-16T17:31:32;7.87;;;2.30;;
11699;SDS011;5906;51.660;6.674;2022-10-16T17:34:01;4.43;;;2.60;;
11699;SDS011;5906;51.660;6.674;2022-10-16T17:36:31;7.80;;;2.60;;
11699;SDS011;5906;51.660;6.674;2022-10-16T17:39:03;4.20;;;2.57;;
11699;SDS011;5906;51.660;6.674;2022-10-16T17:41:32;8.10;;;2.90;;